createdAt,value
2022-11-16T00:00:23.514Z,100734.03
2022-11-16T00:02:52.197Z,100741.44
2022-11-16T00:05:28.001Z,100731.78
2022-11-16T00:07:57.879Z,100719.38
2022-11-16T00:10:26.002Z,100713.25
2022-11-16T00:12:54.124Z,100711.53
2022-11-16T00:15:24.010Z,100699.03
2022-11-16T00:17:52.479Z,100707.84
2022-11-16T00:20:20.790Z,100696.16
2022-11-16T00:22:49.963Z,100694.31
2022-11-16T00:25:22.744Z,100699.25
2022-11-16T00:28:02.123Z,100695.00
2022-11-16T00:30:30.281Z,100686.41
2022-11-16T00:33:06.936Z,100689.28
2022-11-16T00:35:40.083Z,100686.72
2022-11-16T00:38:08.748Z,100686.72
2022-11-16T00:40:40.248Z,100685.56
2022-11-16T00:43:08.640Z,100680.00
2022-11-16T00:45:39.925Z,100665.03
2022-11-16T00:48:08.111Z,100675.28
2022-11-16T00:50:36.786Z,100671.03
2022-11-16T00:53:06.957Z,100667.09
2022-11-16T00:55:35.015Z,100664.00
2022-11-16T00:58:04.333Z,100661.22
2022-11-16T01:00:32.239Z,100656.97
2022-11-16T01:03:02.658Z,100654.97
2022-11-16T01:05:31.046Z,100659.44
2022-11-16T01:07:59.189Z,100651.47
2022-11-16T01:10:34.373Z,100644.16
2022-11-16T01:13:06.982Z,100635.69
2022-11-16T01:15:35.087Z,100624.03
2022-11-16T01:18:03.213Z,100632.47
2022-11-16T01:20:32.062Z,100624.88
2022-11-16T01:23:00.193Z,100622.16
2022-11-16T01:25:29.610Z,100623.56
2022-11-16T01:27:57.890Z,100627.56
2022-11-16T01:30:48.704Z,100617.47
2022-11-16T01:33:16.822Z,100610.16
2022-11-16T01:35:45.142Z,100609.50
2022-11-16T01:38:15.622Z,100606.69
2022-11-16T01:40:44.093Z,100605.19
2022-11-16T01:43:20.682Z,100607.06
2022-11-16T01:45:49.048Z,100594.38
2022-11-16T01:48:24.943Z,100594.22
2022-11-16T01:50:54.140Z,100589.66
2022-11-16T01:53:22.502Z,100586.81
2022-11-16T01:55:57.151Z,100582.06
2022-11-16T01:58:30.921Z,100583.25
2022-11-16T02:01:07.465Z,100586.63
2022-11-16T02:03:45.385Z,100597.69
2022-11-16T02:06:17.011Z,100581.97
2022-11-16T02:09:34.877Z,100592.72
2022-11-16T02:13:35.383Z,100596.66
2022-11-16T02:16:52.643Z,100586.84
2022-11-16T02:19:51.821Z,100589.94
2022-11-16T02:22:27.796Z,100597.88
2022-11-16T02:25:05.352Z,100585.03
2022-11-16T02:27:52.780Z,100580.16
2022-11-16T02:30:20.815Z,100582.19
2022-11-16T02:32:59.224Z,100578.63
2022-11-16T02:35:33.397Z,100581.31
2022-11-16T02:38:09.951Z,100579.63
2022-11-16T02:40:45.625Z,100564.78
2022-11-16T02:43:32.648Z,100576.91
2022-11-16T02:46:05.505Z,100561.03
2022-11-16T02:48:39.384Z,100569.88
2022-11-16T02:51:08.672Z,100567.00
2022-11-16T02:53:42.742Z,100562.09
2022-11-16T02:56:13.933Z,100561.41
2022-11-16T02:58:42.804Z,100569.53
2022-11-16T03:01:21.783Z,100556.47
2022-11-16T03:03:53.048Z,100560.56
2022-11-16T03:06:30.112Z,100554.13
2022-11-16T03:09:15.362Z,100545.31
2022-11-16T03:12:03.690Z,100556.84
2022-11-16T03:14:47.248Z,100546.31
2022-11-16T03:17:22.890Z,100541.94
2022-11-16T03:20:02.515Z,100533.63
2022-11-16T03:22:42.472Z,100521.94
2022-11-16T03:25:14.632Z,100513.81
2022-11-16T03:28:05.848Z,100512.66
2022-11-16T03:30:47.903Z,100506.19
2022-11-16T03:33:20.768Z,100510.97
2022-11-16T03:36:06.859Z,100506.06
2022-11-16T03:38:35.916Z,100505.03
2022-11-16T03:41:07.442Z,100496.59
2022-11-16T03:43:36.360Z,100495.22
2022-11-16T03:46:05.989Z,100501.47
2022-11-16T03:48:36.082Z,100498.94
2022-11-16T03:51:13.673Z,100507.94
2022-11-16T03:53:52.780Z,100512.50
2022-11-16T03:56:21.192Z,100503.53
2022-11-16T03:59:17.933Z,100489.00
2022-11-16T04:01:46.780Z,100490.16
2022-11-16T04:04:36.321Z,100492.16
2022-11-16T04:07:26.817Z,100484.91
2022-11-16T04:10:13.404Z,100485.06
2022-11-16T04:13:02.263Z,100477.81
2022-11-16T04:15:48.765Z,100484.59
2022-11-16T04:18:35.460Z,100472.56
2022-11-16T04:21:24.186Z,100476.09
2022-11-16T04:24:10.204Z,100473.56
2022-11-16T04:26:57.436Z,100462.25
2022-11-16T04:29:25.657Z,100449.88
2022-11-16T04:32:12.214Z,100464.09
2022-11-16T04:34:58.668Z,100456.16
2022-11-16T04:37:45.623Z,100456.31
2022-11-16T04:40:16.695Z,100451.59
2022-11-16T04:43:00.361Z,100449.72
2022-11-16T04:45:51.266Z,100444.78
2022-11-16T04:48:21.688Z,100449.91
2022-11-16T04:50:53.511Z,100445.66
2022-11-16T04:53:25.148Z,100437.53
2022-11-16T04:56:01.196Z,100436.84
2022-11-16T04:58:31.463Z,100439.75
2022-11-16T05:01:00.392Z,100457.53
2022-11-16T05:03:32.659Z,100451.09
2022-11-16T05:06:04.089Z,100454.28
2022-11-16T05:08:33.339Z,100443.78
2022-11-16T05:11:01.987Z,100439.41
2022-11-16T05:13:30.653Z,100444.50
2022-11-16T05:16:01.677Z,100450.09
2022-11-16T09:14:59.345Z,100297.41
2022-11-16T09:17:28.007Z,100291.50
2022-11-16T09:19:57.064Z,100284.97
2022-11-16T09:22:25.997Z,100281.25
2022-11-16T09:24:58.278Z,100273.41
2022-11-16T09:27:30.755Z,100280.91
2022-11-16T09:30:02.329Z,100280.81
2022-11-16T09:32:30.527Z,100280.91
2022-11-16T09:35:02.118Z,100285.97
2022-11-16T09:37:43.394Z,100287.47
2022-11-16T09:40:14.514Z,100289.31
2022-11-16T09:43:07.157Z,100289.03
2022-11-16T09:45:38.421Z,100281.69
2022-11-16T09:48:17.854Z,100273.03
2022-11-16T09:51:25.308Z,100270.59
2022-11-16T09:54:08.394Z,100266.84
2022-11-16T09:56:48.025Z,100266.75
2022-11-16T09:59:26.651Z,100264.59
2022-11-16T10:02:21.484Z,100268.53
2022-11-16T10:05:12.892Z,100266.78
2022-11-16T10:07:50.859Z,100260.94
2022-11-16T10:10:45.397Z,100256.81
2022-11-16T10:13:43.656Z,100261.06
2022-11-16T10:16:46.859Z,100255.78
2022-11-16T10:21:16.762Z,100254.00
2022-11-16T10:24:32.477Z,100242.28
2022-11-16T10:28:12.084Z,100228.63
2022-11-16T10:31:42.565Z,100224.88
2022-11-16T10:38:34.611Z,100232.66
2022-11-16T10:41:39.362Z,100220.94
2022-11-16T10:44:44.520Z,100212.03
2022-11-16T10:47:23.414Z,100225.38
2022-11-16T10:50:05.387Z,100208.94
2022-11-16T10:54:00.950Z,100206.78
2022-11-16T10:57:00.980Z,100214.31
2022-11-16T10:59:48.707Z,100203.34
2022-11-16T11:02:38.014Z,100204.00
2022-11-16T11:05:25.967Z,100191.72
2022-11-16T11:08:12.532Z,100201.06
2022-11-16T11:10:56.678Z,100198.34
2022-11-16T11:13:30.153Z,100196.00
2022-11-16T11:16:17.914Z,100186.63
2022-11-16T11:18:57.521Z,100181.06
2022-11-16T11:21:26.099Z,100172.91
2022-11-16T11:24:10.596Z,100177.59
2022-11-16T11:26:51.314Z,100165.09
2022-11-16T11:29:27.800Z,100171.00
2022-11-16T11:32:06.020Z,100175.16
2022-11-16T11:34:40.328Z,100175.41
2022-11-16T11:37:21.129Z,100167.31
2022-11-16T11:40:04.837Z,100162.75
2022-11-16T11:42:34.011Z,100162.56
2022-11-16T11:45:13.693Z,100164.59
2022-11-16T11:48:15.312Z,100154.75
2022-11-16T11:51:17.071Z,100157.66
2022-11-16T11:53:58.638Z,100155.03
2022-11-16T11:56:39.011Z,100133.50
2022-11-16T11:59:14.072Z,100147.69
2022-11-16T12:02:19.639Z,100149.84
2022-11-16T12:05:15.835Z,100145.72
2022-11-16T12:07:52.563Z,100136.81
2022-11-16T12:10:28.147Z,100129.66
2022-11-16T12:13:27.660Z,100122.53
2022-11-16T12:16:18.105Z,100124.59
2022-11-16T12:19:13.155Z,100127.16
2022-11-16T12:22:06.150Z,100122.09
2022-11-16T12:24:46.068Z,100117.03
2022-11-16T12:27:50.541Z,100118.56
2022-11-16T12:30:26.569Z,100111.81
2022-11-16T12:33:13.742Z,100115.06
2022-11-16T12:35:55.001Z,100120.06
2022-11-16T12:38:42.168Z,100124.78
2022-11-16T12:41:35.759Z,100121.47
2022-11-16T12:44:12.094Z,100120.13
2022-11-16T12:47:13.195Z,100119.28
2022-11-16T12:50:35.439Z,100126.84
2022-11-16T12:53:22.007Z,100114.59
2022-11-16T12:55:59.210Z,100115.44
2022-11-16T12:58:53.057Z,100123.22
2022-11-16T13:01:30.993Z,100118.16
2022-11-16T13:04:06.615Z,100113.56
2022-11-16T13:06:41.632Z,100107.53
2022-11-16T13:09:16.697Z,100109.63
2022-11-16T13:11:56.274Z,100104.34
2022-11-16T13:14:29.603Z,100103.06
2022-11-16T13:16:58.712Z,100110.38
2022-11-16T13:19:32.496Z,100107.66
2022-11-16T13:22:08.003Z,100100.34
2022-11-16T13:24:59.057Z,100093.03
2022-11-16T13:27:39.865Z,100093.88
2022-11-16T13:30:23.936Z,100097.41
2022-11-16T13:33:14.612Z,100093.19
2022-11-16T13:35:43.164Z,100080.66
2022-11-16T13:38:14.690Z,100072.66
2022-11-16T13:40:46.046Z,100076.34
2022-11-16T13:43:17.794Z,100069.03
2022-11-16T13:46:00.059Z,100077.19
2022-11-16T13:48:38.429Z,100081.41
2022-11-16T13:51:11.155Z,100079.72
2022-11-16T13:56:49.228Z,100072.31
2022-11-16T13:59:17.488Z,100072.31
2022-11-16T14:01:59.604Z,100069.81
2022-11-16T14:04:42.275Z,100069.72
2022-11-16T14:07:37.302Z,100064.91
2022-11-16T14:10:06.231Z,100068.13
2022-11-16T17:00:50.527Z,99957.97
2022-11-16T17:03:20.812Z,99957.31
2022-11-16T17:05:49.247Z,99949.44
2022-11-16T17:08:17.096Z,99954.50
2022-11-16T17:10:45.242Z,99949.06
2022-11-16T17:13:13.353Z,99937.97
2022-11-16T17:22:56.473Z,99946.41
2022-11-16T17:25:28.307Z,99939.69
2022-11-16T17:27:56.377Z,99929.56
2022-11-16T17:30:24.017Z,99942.41
2022-11-16T17:32:51.871Z,99924.34
2022-11-16T17:35:19.656Z,99934.25
2022-11-16T17:37:48.812Z,99928.53
2022-11-16T17:40:17.912Z,99924.28
2022-11-16T17:42:46.301Z,99930.56
2022-11-16T17:45:14.089Z,99919.47
2022-11-16T17:47:42.100Z,99931.16
2022-11-16T17:50:10.256Z,99924.91
2022-11-16T17:52:41.076Z,99916.91
2022-11-16T17:55:09.309Z,99912.00
2022-11-16T17:57:36.968Z,99906.47
2022-11-16T18:00:05.232Z,99909.66
2022-11-16T18:02:36.093Z,99905.63
2022-11-16T18:05:03.915Z,99908.34
2022-11-16T18:07:33.703Z,99898.59
2022-11-16T18:10:01.671Z,99911.47
2022-11-16T18:12:29.593Z,99898.53
2022-11-16T18:15:26.471Z,99891.47
2022-11-16T18:17:46.734Z,99901.84
2022-11-16T18:20:14.567Z,99894.69
2022-11-16T18:22:42.347Z,99907.06
2022-11-16T18:25:10.013Z,99901.84
2022-11-16T18:27:38.073Z,99892.13
2022-11-16T18:30:07.673Z,99894.84
2022-11-16T18:32:37.218Z,99899.81
2022-11-16T18:35:10.126Z,99901.84
2022-11-16T18:37:39.255Z,99899.38
2022-11-16T18:40:08.392Z,99893.94
2022-11-16T18:42:36.942Z,99890.97
2022-11-16T18:45:05.085Z,99883.88
2022-11-16T18:47:35.333Z,99885.53
2022-11-16T18:50:03.146Z,99886.34
2022-11-16T18:52:31.289Z,99882.81
2022-11-16T18:54:59.062Z,99890.97
2022-11-16T18:57:27.447Z,99876.69
2022-11-16T18:59:55.210Z,99888.88
2022-11-16T19:02:23.264Z,99878.00
2022-11-16T19:04:51.530Z,99873.81
2022-11-16T19:07:19.864Z,99876.31
2022-11-16T19:09:47.987Z,99865.81
2022-11-16T19:12:15.868Z,99864.81
2022-11-16T19:14:43.747Z,99848.69
2022-11-16T19:17:11.549Z,99852.06
2022-11-16T19:19:40.820Z,99853.09
2022-11-16T19:22:08.908Z,99847.59
2022-11-16T19:24:37.481Z,99843.06
2022-11-16T19:27:05.402Z,99852.06
2022-11-16T19:29:33.314Z,99847.84
2022-11-16T19:32:01.117Z,99849.25
2022-11-16T19:34:33.322Z,99849.91
2022-11-16T19:37:01.481Z,99844.03
2022-11-16T19:39:29.395Z,99845.63
2022-11-16T19:41:57.260Z,99842.28
2022-11-16T19:44:25.174Z,99839.81
2022-11-16T19:46:54.716Z,99841.06
2022-11-16T19:49:22.711Z,99845.13
2022-11-16T19:51:50.571Z,99843.03
2022-11-16T19:54:19.816Z,99836.84
2022-11-16T19:56:54.673Z,99835.34
2022-11-16T19:59:23.065Z,99824.22
2022-11-16T20:01:51.118Z,99828.50
2022-11-16T20:04:19.104Z,99823.38
2022-11-16T20:06:47.566Z,99822.09
2022-11-16T20:09:15.720Z,99815.72
2022-11-16T20:11:45.965Z,99810.28
2022-11-16T20:14:15.151Z,99808.03
2022-11-16T20:16:46.670Z,99809.53
2022-11-16T20:19:15.339Z,99811.78
2022-11-16T20:21:43.360Z,99808.31
2022-11-16T20:24:12.911Z,99795.75
2022-11-16T20:26:42.691Z,99804.44
2022-11-16T20:29:12.507Z,99798.66
2022-11-16T20:31:43.049Z,99796.59
2022-11-16T20:34:15.727Z,99794.84
2022-11-16T20:36:47.323Z,99796.34
2022-11-16T20:39:16.338Z,99795.06
2022-11-16T20:41:44.960Z,99789.41
2022-11-16T20:44:16.640Z,99786.09
2022-11-16T20:46:45.370Z,99787.41
2022-11-16T20:49:13.434Z,99789.41
2022-11-16T20:51:42.135Z,99788.66
2022-11-16T20:54:10.336Z,99791.69
2022-11-16T20:56:38.180Z,99781.91
2022-11-16T20:59:06.184Z,99781.91
2022-11-16T21:01:34.094Z,99778.44
2022-11-16T21:04:04.126Z,99781.72
2022-11-16T21:06:32.853Z,99777.31
2022-11-16T21:09:00.919Z,99775.25
2022-11-16T21:11:30.240Z,99762.72
2022-11-16T21:14:16.605Z,99758.31
2022-11-16T21:16:44.625Z,99753.06
2022-11-16T21:19:12.784Z,99764.13
2022-11-16T21:21:41.477Z,99760.75
2022-11-16T21:24:09.670Z,99756.44
2022-11-16T21:26:37.695Z,99751.00
2022-11-16T21:29:05.733Z,99749.50
2022-11-16T21:31:34.978Z,99757.28
2022-11-16T21:34:02.808Z,99749.56
2022-11-16T21:36:31.449Z,99760.63
2022-11-16T21:38:59.595Z,99752.63
2022-11-16T21:41:30.622Z,99750.50
2022-11-16T21:43:58.377Z,99757.63
2022-11-16T21:46:26.599Z,99752.81
2022-11-16T21:48:56.745Z,99755.31
2022-11-16T21:51:44.069Z,99746.28
2022-11-16T21:54:11.815Z,99751.25
2022-11-16T21:56:40.780Z,99736.06
2022-11-16T21:59:08.460Z,99735.41
2022-11-16T22:01:59.497Z,99738.13
2022-11-16T22:04:47.130Z,99732.81
2022-11-16T22:07:34.154Z,99733.63
2022-11-16T22:10:03.039Z,99730.25
2022-11-16T22:12:30.832Z,99722.69
2022-11-16T22:14:58.927Z,99730.19
2022-11-16T22:17:28.885Z,99721.84
2022-11-16T22:20:00.462Z,99719.84
2022-11-16T22:22:28.303Z,99717.88
2022-11-16T22:24:56.373Z,99715.84
2022-11-16T22:27:24.399Z,99708.94
2022-11-16T22:29:52.604Z,99702.44
2022-11-16T22:32:20.258Z,99696.00
2022-11-16T22:34:48.417Z,99701.81
2022-11-16T22:37:16.177Z,99699.03
2022-11-16T22:39:44.409Z,99686.09
2022-11-16T22:42:12.207Z,99686.09
2022-11-16T22:44:40.474Z,99676.47
2022-11-16T22:47:09.622Z,99668.72
2022-11-16T22:49:37.626Z,99675.03
2022-11-16T22:52:05.597Z,99670.97
2022-11-16T22:54:37.974Z,99672.84
2022-11-16T22:57:30.494Z,99676.22
2022-11-16T22:59:58.264Z,99672.69
2022-11-16T23:02:26.298Z,99667.44
2022-11-16T23:04:54.106Z,99676.84
